sensor_id;sensor_type;location;lat;lon;timestamp;noise_LAeq;noise_LA_min;noise_LA_max;noise_LA01;noise_LA95
49568;Laerm;35474;51.032;6.998;2023-04-12T00:00:34;60.94;45.45;85.60;;
49568;Laerm;35474;51.032;6.998;2023-04-12T00:03:04;52.97;45.01;79.85;;
49568;Laerm;35474;51.032;6.998;2023-04-12T00:05:31;56.01;45.51;68.79;;
49568;Laerm;35474;51.032;6.998;2023-04-12T00:07:57;65.13;44.51;90.15;;
49568;Laerm;35474;51.032;6.998;2023-04-12T00:10:26;55.01;45.60;72.46;;
49568;Laerm;35474;51.032;6.998;2023-04-12T00:12:52;53.41;45.27;78.01;;
49568;Laerm;35474;51.032;6.998;2023-04-12T00:15:19;56.19;45.51;72.16;;
49568;Laerm;35474;51.032;6.998;2023-04-12T00:17:45;54.09;46.07;68.14;;
49568;Laerm;35474;51.032;6.998;2023-04-12T00:20:13;59.41;46.07;75.58;;
49568;Laerm;35474;51.032;6.998;2023-04-12T00:22:42;61.18;45.20;86.87;;
49568;Laerm;35474;51.032;6.998;2023-04-12T00:25:09;50.54;44.97;70.84;;
49568;Laerm;35474;51.032;6.998;2023-04-12T00:27:36;65.02;44.90;94.13;;
49568;Laerm;35474;51.032;6.998;2023-04-12T00:30:02;49.92;45.42;74.46;;
49568;Laerm;35474;51.032;6.998;2023-04-12T00:32:29;52.66;45.39;76.48;;
49568;Laerm;35474;51.032;6.998;2023-04-12T00:34:55;63.08;45.11;93.37;;
49568;Laerm;35474;51.032;6.998;2023-04-12T00:37:22;58.39;44.43;82.16;;
49568;Laerm;35474;51.032;6.998;2023-04-12T00:39:48;59.18;45.60;83.94;;
49568;Laerm;35474;51.032;6.998;2023-04-12T00:42:15;59.92;46.30;85.23;;
49568;Laerm;35474;51.032;6.998;2023-04-12T00:44:42;66.22;45.57;93.03;;
49568;Laerm;35474;51.032;6.998;2023-04-12T00:47:08;57.75;45.20;77.82;;
49568;Laerm;35474;51.032;6.998;2023-04-12T00:49:35;57.27;45.45;80.70;;
49568;Laerm;35474;51.032;6.998;2023-04-12T00:52:07;52.72;45.14;76.92;;
49568;Laerm;35474;51.032;6.998;2023-04-12T00:54:34;61.97;45.07;88.28;;
49568;Laerm;35474;51.032;6.998;2023-04-12T00:57:01;49.87;45.07;68.87;;
49568;Laerm;35474;51.032;6.998;2023-04-12T00:59:28;63.82;45.89;90.54;;
49568;Laerm;35474;51.032;6.998;2023-04-12T01:01:55;50.45;45.60;68.25;;
49568;Laerm;35474;51.032;6.998;2023-04-12T01:04:23;60.23;45.23;87.81;;
49568;Laerm;35474;51.032;6.998;2023-04-12T01:07:14;60.95;45.63;82.89;;
49568;Laerm;35474;51.032;6.998;2023-04-12T01:09:54;51.92;44.76;73.23;;
49568;Laerm;35474;51.032;6.998;2023-04-12T01:12:32;57.00;44.54;74.44;;
49568;Laerm;35474;51.032;6.998;2023-04-12T01:15:03;59.71;45.20;89.59;;
49568;Laerm;35474;51.032;6.998;2023-04-12T01:17:37;58.55;44.27;84.63;;
49568;Laerm;35474;51.032;6.998;2023-04-12T01:20:06;59.49;44.73;89.49;;
49568;Laerm;35474;51.032;6.998;2023-04-12T01:28:21;63.15;46.55;91.30;;
49568;Laerm;35474;51.032;6.998;2023-04-12T01:30:49;54.87;46.15;69.92;;
49568;Laerm;35474;51.032;6.998;2023-04-12T01:33:17;53.18;46.28;67.11;;
49568;Laerm;35474;51.032;6.998;2023-04-12T01:35:44;58.84;45.83;83.79;;
49568;Laerm;35474;51.032;6.998;2023-04-12T01:38:13;58.02;46.93;81.45;;
49568;Laerm;35474;51.032;6.998;2023-04-12T01:40:40;58.56;45.99;83.06;;
49568;Laerm;35474;51.032;6.998;2023-04-12T01:43:12;60.55;46.23;88.59;;
49568;Laerm;35474;51.032;6.998;2023-04-12T01:45:39;51.84;45.86;66.78;;
49568;Laerm;35474;51.032;6.998;2023-04-12T01:48:10;60.52;46.66;84.31;;
49568;Laerm;35474;51.032;6.998;2023-04-12T01:50:55;61.83;45.94;81.65;;
49568;Laerm;35474;51.032;6.998;2023-04-12T01:56:03;59.78;45.54;80.03;;
49568;Laerm;35474;51.032;6.998;2023-04-12T01:58:32;58.47;45.14;82.40;;
49568;Laerm;35474;51.032;6.998;2023-04-12T02:01:00;57.33;46.13;83.69;;
49568;Laerm;35474;51.032;6.998;2023-04-12T02:03:28;72.72;45.63;96.94;;
49568;Laerm;35474;51.032;6.998;2023-04-12T02:05:57;70.09;45.89;93.07;;
49568;Laerm;35474;51.032;6.998;2023-04-12T02:08:24;54.39;45.20;82.80;;
49568;Laerm;35474;51.032;6.998;2023-04-12T02:16:54;55.33;45.54;78.43;;
49568;Laerm;35474;51.032;6.998;2023-04-12T02:20:01;71.13;45.48;95.92;;
49568;Laerm;35474;51.032;6.998;2023-04-12T02:22:40;65.77;47.36;85.90;;
49568;Laerm;35474;51.032;6.998;2023-04-12T02:25:35;62.71;47.15;88.95;;
49568;Laerm;35474;51.032;6.998;2023-04-12T02:29:04;64.26;45.86;93.04;;
49568;Laerm;35474;51.032;6.998;2023-04-12T02:32:01;64.01;45.83;91.63;;
49568;Laerm;35474;51.032;6.998;2023-04-12T02:34:49;68.31;47.10;91.42;;
49568;Laerm;35474;51.032;6.998;2023-04-12T02:37:20;59.36;47.06;78.19;;
49568;Laerm;35474;51.032;6.998;2023-04-12T02:40:26;63.49;48.63;84.39;;
49568;Laerm;35474;51.032;6.998;2023-04-12T02:50:35;65.71;46.25;90.70;;
49568;Laerm;35474;51.032;6.998;2023-04-12T02:53:12;64.45;48.08;84.24;;
49568;Laerm;35474;51.032;6.998;2023-04-12T02:56:21;69.34;47.84;95.05;;
49568;Laerm;35474;51.032;6.998;2023-04-12T02:59:02;76.12;48.61;99.40;;
49568;Laerm;35474;51.032;6.998;2023-04-12T03:01:50;74.18;50.21;96.83;;
49568;Laerm;35474;51.032;6.998;2023-04-12T03:05:15;69.67;48.40;96.66;;
49568;Laerm;35474;51.032;6.998;2023-04-12T03:08:09;67.08;50.07;90.17;;
49568;Laerm;35474;51.032;6.998;2023-04-12T03:10:42;66.03;49.23;85.35;;
49568;Laerm;35474;51.032;6.998;2023-04-12T03:13:18;70.34;49.06;92.46;;
49568;Laerm;35474;51.032;6.998;2023-04-12T03:15:53;74.74;50.49;97.21;;
49568;Laerm;35474;51.032;6.998;2023-04-12T03:18:54;73.17;49.23;99.68;;
49568;Laerm;35474;51.032;6.998;2023-04-12T03:24:36;67.74;49.33;90.16;;
49568;Laerm;35474;51.032;6.998;2023-04-12T03:27:04;75.83;51.80;98.40;;
49568;Laerm;35474;51.032;6.998;2023-04-12T03:29:53;70.69;50.29;91.15;;
49568;Laerm;35474;51.032;6.998;2023-04-12T03:33:28;73.43;48.69;100.60;;
49568;Laerm;35474;51.032;6.998;2023-04-12T03:36:04;69.91;50.85;91.88;;
49568;Laerm;35474;51.032;6.998;2023-04-12T03:40:01;68.06;51.54;90.20;;
49568;Laerm;35474;51.032;6.998;2023-04-12T03:42:53;74.08;49.56;98.39;;
49568;Laerm;35474;51.032;6.998;2023-04-12T03:45:52;71.37;51.96;91.53;;
49568;Laerm;35474;51.032;6.998;2023-04-12T03:48:42;72.24;53.73;94.48;;
49568;Laerm;35474;51.032;6.998;2023-04-12T03:51:33;74.85;51.55;96.72;;
49568;Laerm;35474;51.032;6.998;2023-04-12T03:54:35;73.00;55.46;95.21;;
49568;Laerm;35474;51.032;6.998;2023-04-12T03:57:03;66.17;52.17;87.60;;
49568;Laerm;35474;51.032;6.998;2023-04-12T03:59:36;73.50;51.37;99.94;;
49568;Laerm;35474;51.032;6.998;2023-04-12T04:02:16;73.85;52.31;99.10;;
49568;Laerm;35474;51.032;6.998;2023-04-12T04:08:28;67.26;51.09;85.93;;
49568;Laerm;35474;51.032;6.998;2023-04-12T04:11:08;75.18;52.01;95.68;;
49568;Laerm;35474;51.032;6.998;2023-04-12T04:14:26;75.99;52.66;101.51;;
49568;Laerm;35474;51.032;6.998;2023-04-12T04:17:37;74.89;51.08;97.82;;
49568;Laerm;35474;51.032;6.998;2023-04-12T04:20:59;67.82;51.83;85.52;;
49568;Laerm;35474;51.032;6.998;2023-04-12T04:27:42;72.66;51.04;98.34;;
49568;Laerm;35474;51.032;6.998;2023-04-12T04:30:56;73.81;50.79;96.64;;
49568;Laerm;35474;51.032;6.998;2023-04-12T04:34:15;76.61;51.29;98.22;;
49568;Laerm;35474;51.032;6.998;2023-04-12T04:41:11;74.10;51.16;98.23;;
49568;Laerm;35474;51.032;6.998;2023-04-12T04:44:21;71.67;52.59;94.07;;
49568;Laerm;35474;51.032;6.998;2023-04-12T04:57:35;72.84;52.30;96.16;;
49568;Laerm;35474;51.032;6.998;2023-04-12T05:01:18;69.03;53.98;88.33;;
49568;Laerm;35474;51.032;6.998;2023-04-12T05:04:20;71.52;51.77;91.83;;
49568;Laerm;35474;51.032;6.998;2023-04-12T05:06:53;70.64;53.99;89.58;;
49568;Laerm;35474;51.032;6.998;2023-04-12T05:12:35;68.58;52.67;86.79;;
49568;Laerm;35474;51.032;6.998;2023-04-12T05:15:29;69.93;59.77;91.22;;
49568;Laerm;35474;51.032;6.998;2023-04-12T05:18:06;77.25;50.80;101.83;;
49568;Laerm;35474;51.032;6.998;2023-04-12T05:20:54;77.59;55.05;98.17;;
49568;Laerm;35474;51.032;6.998;2023-04-12T05:23:21;70.98;54.54;93.07;;
49568;Laerm;35474;51.032;6.998;2023-04-12T05:26:17;74.01;53.98;98.88;;
49568;Laerm;35474;51.032;6.998;2023-04-12T05:29:23;71.89;54.64;94.17;;
49568;Laerm;35474;51.032;6.998;2023-04-12T05:32:06;72.14;55.39;90.95;;
49568;Laerm;35474;51.032;6.998;2023-04-12T05:34:44;73.60;54.82;94.71;;
49568;Laerm;35474;51.032;6.998;2023-04-12T05:37:22;74.98;53.89;100.13;;
49568;Laerm;35474;51.032;6.998;2023-04-12T05:40:02;68.35;53.53;86.71;;
49568;Laerm;35474;51.032;6.998;2023-04-12T05:42:40;67.75;53.94;81.62;;
49568;Laerm;35474;51.032;6.998;2023-04-12T05:45:12;69.89;58.89;86.46;;
49568;Laerm;35474;51.032;6.998;2023-04-12T05:47:42;72.91;53.00;97.21;;
49568;Laerm;35474;51.032;6.998;2023-04-12T05:50:17;68.84;54.35;89.78;;
49568;Laerm;35474;51.032;6.998;2023-04-12T05:52:47;70.97;55.19;90.97;;
49568;Laerm;35474;51.032;6.998;2023-04-12T05:55:17;70.22;52.92;90.43;;
49568;Laerm;35474;51.032;6.998;2023-04-12T05:57:44;73.01;54.12;94.03;;
49568;Laerm;35474;51.032;6.998;2023-04-12T06:00:35;75.89;53.05;98.43;;
49568;Laerm;35474;51.032;6.998;2023-04-12T06:03:02;75.96;52.81;94.57;;
49568;Laerm;35474;51.032;6.998;2023-04-12T06:05:47;69.83;52.88;88.44;;
49568;Laerm;35474;51.032;6.998;2023-04-12T06:08:17;67.36;54.95;82.11;;
49568;Laerm;35474;51.032;6.998;2023-04-12T06:10:45;72.99;52.97;94.30;;
49568;Laerm;35474;51.032;6.998;2023-04-12T06:13:12;70.96;53.94;90.55;;
49568;Laerm;35474;51.032;6.998;2023-04-12T06:15:42;79.51;56.98;105.31;;
49568;Laerm;35474;51.032;6.998;2023-04-12T06:18:50;75.43;54.39;100.12;;
49568;Laerm;35474;51.032;6.998;2023-04-12T06:21:22;72.55;52.72;91.51;;
49568;Laerm;35474;51.032;6.998;2023-04-12T06:27:40;72.60;53.10;93.41;;
49568;Laerm;35474;51.032;6.998;2023-04-12T06:32:46;77.56;58.72;98.29;;
49568;Laerm;35474;51.032;6.998;2023-04-12T06:35:35;71.66;53.16;93.46;;
49568;Laerm;35474;51.032;6.998;2023-04-12T06:38:23;77.33;53.73;98.60;;
49568;Laerm;35474;51.032;6.998;2023-04-12T06:45:02;80.06;55.43;102.83;;
49568;Laerm;35474;51.032;6.998;2023-04-12T06:47:30;75.37;56.74;97.40;;
49568;Laerm;35474;51.032;6.998;2023-04-12T06:50:18;71.50;55.63;96.57;;
49568;Laerm;35474;51.032;6.998;2023-04-12T06:52:50;80.03;57.28;99.39;;
49568;Laerm;35474;51.032;6.998;2023-04-12T06:55:37;78.83;53.42;102.59;;
49568;Laerm;35474;51.032;6.998;2023-04-12T07:03:02;78.50;53.05;99.63;;
49568;Laerm;35474;51.032;6.998;2023-04-12T07:05:29;80.16;58.71;103.36;;
49568;Laerm;35474;51.032;6.998;2023-04-12T07:08:02;72.81;51.87;93.38;;
49568;Laerm;35474;51.032;6.998;2023-04-12T07:11:05;78.61;53.98;102.42;;
49568;Laerm;35474;51.032;6.998;2023-04-12T07:14:13;74.68;57.81;96.71;;
49568;Laerm;35474;51.032;6.998;2023-04-12T07:25:07;72.00;56.54;93.44;;
49568;Laerm;35474;51.032;6.998;2023-04-12T07:27:46;77.44;53.54;100.10;;
49568;Laerm;35474;51.032;6.998;2023-04-12T07:30:15;72.13;53.73;92.30;;
49568;Laerm;35474;51.032;6.998;2023-04-12T07:32:42;77.68;52.83;99.36;;
49568;Laerm;35474;51.032;6.998;2023-04-12T07:35:09;69.91;54.90;92.05;;
49568;Laerm;35474;51.032;6.998;2023-04-12T07:37:36;73.58;53.31;95.21;;
49568;Laerm;35474;51.032;6.998;2023-04-12T07:40:04;74.58;56.11;95.73;;
49568;Laerm;35474;51.032;6.998;2023-04-12T07:42:37;73.35;54.79;92.94;;
49568;Laerm;35474;51.032;6.998;2023-04-12T07:45:04;78.05;58.80;99.15;;
49568;Laerm;35474;51.032;6.998;2023-04-12T07:47:31;79.11;54.33;100.03;;
49568;Laerm;35474;51.032;6.998;2023-04-12T07:49:58;74.93;59.56;97.75;;
49568;Laerm;35474;51.032;6.998;2023-04-12T07:52:24;73.58;63.78;94.43;;
49568;Laerm;35474;51.032;6.998;2023-04-12T07:54:51;70.14;53.15;89.89;;
49568;Laerm;35474;51.032;6.998;2023-04-12T07:57:17;76.35;53.95;99.61;;
49568;Laerm;35474;51.032;6.998;2023-04-12T07:59:44;80.96;59.56;103.54;;
49568;Laerm;35474;51.032;6.998;2023-04-12T08:02:10;68.63;51.74;88.39;;
49568;Laerm;35474;51.032;6.998;2023-04-12T08:04:37;82.40;55.55;102.89;;
49568;Laerm;35474;51.032;6.998;2023-04-12T08:07:03;78.38;54.52;99.44;;
49568;Laerm;35474;51.032;6.998;2023-04-12T08:09:30;76.89;52.81;99.55;;
49568;Laerm;35474;51.032;6.998;2023-04-12T08:11:56;73.21;52.21;95.40;;
49568;Laerm;35474;51.032;6.998;2023-04-12T08:14:23;77.64;56.36;97.01;;
49568;Laerm;35474;51.032;6.998;2023-04-12T08:16:50;81.80;57.50;104.09;;
49568;Laerm;35474;51.032;6.998;2023-04-12T08:19:17;73.15;63.04;90.72;;
49568;Laerm;35474;51.032;6.998;2023-04-12T08:21:43;70.88;59.98;89.82;;
49568;Laerm;35474;51.032;6.998;2023-04-12T08:24:10;69.27;53.08;92.06;;
49568;Laerm;35474;51.032;6.998;2023-04-12T08:26:37;68.04;53.95;88.64;;
49568;Laerm;35474;51.032;6.998;2023-04-12T08:29:04;69.16;58.17;83.94;;
49568;Laerm;35474;51.032;6.998;2023-04-12T08:31:30;69.43;56.67;87.79;;
49568;Laerm;35474;51.032;6.998;2023-04-12T08:33:58;69.16;53.69;84.35;;
49568;Laerm;35474;51.032;6.998;2023-04-12T08:36:25;72.89;50.76;96.46;;
49568;Laerm;35474;51.032;6.998;2023-04-12T08:38:52;79.50;57.11;103.91;;
49568;Laerm;35474;51.032;6.998;2023-04-12T08:41:21;76.25;54.83;98.43;;
49568;Laerm;35474;51.032;6.998;2023-04-12T08:43:47;73.19;53.53;96.82;;
49568;Laerm;35474;51.032;6.998;2023-04-12T08:46:15;73.18;56.73;96.72;;
49568;Laerm;35474;51.032;6.998;2023-04-12T08:48:47;75.99;61.45;97.90;;
49568;Laerm;35474;51.032;6.998;2023-04-12T08:51:16;71.16;57.19;92.78;;
49568;Laerm;35474;51.032;6.998;2023-04-12T08:53:43;74.68;51.16;98.90;;
49568;Laerm;35474;51.032;6.998;2023-04-12T08:56:10;78.40;53.61;98.40;;
49568;Laerm;35474;51.032;6.998;2023-04-12T08:58:44;67.86;51.51;82.16;;
49568;Laerm;35474;51.032;6.998;2023-04-12T09:01:13;67.50;49.24;86.43;;
49568;Laerm;35474;51.032;6.998;2023-04-12T09:03:41;78.94;54.25;105.64;;
49568;Laerm;35474;51.032;6.998;2023-04-12T09:06:09;71.63;53.34;97.78;;
49568;Laerm;35474;51.032;6.998;2023-04-12T09:08:36;67.40;54.01;83.51;;
49568;Laerm;35474;51.032;6.998;2023-04-12T09:11:41;70.76;54.39;91.94;;
49568;Laerm;35474;51.032;6.998;2023-04-12T09:14:24;69.22;59.06;88.47;;
49568;Laerm;35474;51.032;6.998;2023-04-12T09:16:51;70.21;59.70;85.36;;
49568;Laerm;35474;51.032;6.998;2023-04-12T09:19:33;74.42;50.87;98.19;;
49568;Laerm;35474;51.032;6.998;2023-04-12T09:22:00;71.59;49.60;91.53;;
49568;Laerm;35474;51.032;6.998;2023-04-12T09:24:28;68.58;49.84;82.35;;
49568;Laerm;35474;51.032;6.998;2023-04-12T09:27:05;69.49;57.18;89.58;;
49568;Laerm;35474;51.032;6.998;2023-04-12T09:29:32;68.68;53.40;85.65;;
49568;Laerm;35474;51.032;6.998;2023-04-12T09:32:02;68.51;53.08;83.94;;
49568;Laerm;35474;51.032;6.998;2023-04-12T09:34:29;68.68;61.18;74.65;;
49568;Laerm;35474;51.032;6.998;2023-04-12T09:36:57;73.24;53.45;92.67;;
49568;Laerm;35474;51.032;6.998;2023-04-12T09:39:33;69.56;55.00;80.83;;
49568;Laerm;35474;51.032;6.998;2023-04-12T09:42:07;68.22;51.70;79.43;;
49568;Laerm;35474;51.032;6.998;2023-04-12T09:44:58;69.94;55.67;82.86;;
49568;Laerm;35474;51.032;6.998;2023-04-12T09:47:35;68.82;52.39;86.77;;
49568;Laerm;35474;51.032;6.998;2023-04-12T09:50:07;67.61;48.26;77.33;;
49568;Laerm;35474;51.032;6.998;2023-04-12T09:52:36;69.49;57.64;80.84;;
49568;Laerm;35474;51.032;6.998;2023-04-12T09:55:09;68.15;52.46;84.81;;
49568;Laerm;35474;51.032;6.998;2023-04-12T09:57:41;66.38;48.77;78.29;;
49568;Laerm;35474;51.032;6.998;2023-04-12T10:00:10;67.97;52.66;79.17;;
49568;Laerm;35474;51.032;6.998;2023-04-12T10:02:43;69.07;56.48;89.06;;
49568;Laerm;35474;51.032;6.998;2023-04-12T10:05:15;68.80;55.75;85.07;;
49568;Laerm;35474;51.032;6.998;2023-04-12T10:07:43;68.72;53.36;83.61;;
49568;Laerm;35474;51.032;6.998;2023-04-12T10:10:11;69.13;57.71;78.33;;
49568;Laerm;35474;51.032;6.998;2023-04-12T10:12:42;69.19;56.61;86.81;;
49568;Laerm;35474;51.032;6.998;2023-04-12T10:15:10;68.56;53.41;85.38;;
49568;Laerm;35474;51.032;6.998;2023-04-12T10:17:44;69.30;52.41;81.95;;
49568;Laerm;35474;51.032;6.998;2023-04-12T10:20:15;67.87;49.50;81.26;;
49568;Laerm;35474;51.032;6.998;2023-04-12T10:22:44;67.63;55.86;85.81;;
49568;Laerm;35474;51.032;6.998;2023-04-12T10:25:19;70.89;54.70;92.23;;
49568;Laerm;35474;51.032;6.998;2023-04-12T10:27:47;68.95;52.73;89.56;;
49568;Laerm;35474;51.032;6.998;2023-04-12T10:30:20;70.03;51.09;91.24;;
49568;Laerm;35474;51.032;6.998;2023-04-12T10:32:49;67.97;51.14;90.82;;
49568;Laerm;35474;51.032;6.998;2023-04-12T10:38:22;67.85;51.50;87.59;;
49568;Laerm;35474;51.032;6.998;2023-04-12T10:41:17;68.85;52.85;90.02;;
49568;Laerm;35474;51.032;6.998;2023-04-12T10:43:48;77.35;51.13;98.07;;
49568;Laerm;35474;51.032;6.998;2023-04-12T10:49:12;74.66;47.83;95.44;;
49568;Laerm;35474;51.032;6.998;2023-04-12T10:54:30;70.39;57.15;97.35;;
49568;Laerm;35474;51.032;6.998;2023-04-12T10:56:57;71.76;54.29;94.70;;
49568;Laerm;35474;51.032;6.998;2023-04-12T10:59:23;65.72;47.67;72.97;;
49568;Laerm;35474;51.032;6.998;2023-04-12T11:04:32;67.93;54.06;83.70;;
49568;Laerm;35474;51.032;6.998;2023-04-12T11:07:01;74.46;55.37;95.80;;
49568;Laerm;35474;51.032;6.998;2023-04-12T11:14:45;69.96;54.14;87.32;;
49568;Laerm;35474;51.032;6.998;2023-04-12T11:19:43;70.04;50.08;77.89;;
49568;Laerm;35474;51.032;6.998;2023-04-12T11:22:12;68.64;53.62;76.73;;
49568;Laerm;35474;51.032;6.998;2023-04-12T11:24:43;68.32;52.36;75.14;;
49568;Laerm;35474;51.032;6.998;2023-04-12T11:27:11;68.11;50.70;86.66;;
49568;Laerm;35474;51.032;6.998;2023-04-12T11:29:37;67.35;47.67;80.87;;
49568;Laerm;35474;51.032;6.998;2023-04-12T11:32:05;72.55;52.72;91.63;;
49568;Laerm;35474;51.032;6.998;2023-04-12T11:34:36;70.70;56.54;89.09;;
49568;Laerm;35474;51.032;6.998;2023-04-12T11:37:04;68.57;51.56;86.11;;
49568;Laerm;35474;51.032;6.998;2023-04-12T11:39:31;66.83;52.11;77.89;;
49568;Laerm;35474;51.032;6.998;2023-04-12T11:41:59;67.87;58.31;72.37;;
49568;Laerm;35474;51.032;6.998;2023-04-12T11:44:31;67.66;51.62;73.74;;
49568;Laerm;35474;51.032;6.998;2023-04-12T11:47:19;71.39;60.83;91.09;;
49568;Laerm;35474;51.032;6.998;2023-04-12T11:49:54;66.73;49.27;84.76;;
49568;Laerm;35474;51.032;6.998;2023-04-12T11:52:27;68.39;51.37;85.95;;
49568;Laerm;35474;51.032;6.998;2023-04-12T11:54:54;70.54;55.86;89.79;;
49568;Laerm;35474;51.032;6.998;2023-04-12T11:57:24;65.87;52.51;79.09;;
49568;Laerm;35474;51.032;6.998;2023-04-12T11:59:51;68.61;54.83;89.62;;
49568;Laerm;35474;51.032;6.998;2023-04-12T12:02:17;69.08;52.90;86.56;;
49568;Laerm;35474;51.032;6.998;2023-04-12T12:04:49;67.72;53.35;83.62;;
49568;Laerm;35474;51.032;6.998;2023-04-12T12:07:16;65.97;51.89;80.16;;
49568;Laerm;35474;51.032;6.998;2023-04-12T12:09:45;67.59;52.55;84.41;;
49568;Laerm;35474;51.032;6.998;2023-04-12T12:12:12;68.11;47.74;84.13;;
49568;Laerm;35474;51.032;6.998;2023-04-12T12:14:39;66.33;54.46;75.19;;
49568;Laerm;35474;51.032;6.998;2023-04-12T12:17:13;67.57;54.00;78.29;;
49568;Laerm;35474;51.032;6.998;2023-04-12T12:19:42;66.63;55.38;76.02;;
49568;Laerm;35474;51.032;6.998;2023-04-12T12:22:17;67.44;55.94;83.24;;
49568;Laerm;35474;51.032;6.998;2023-04-12T12:24:45;67.06;55.05;78.39;;
49568;Laerm;35474;51.032;6.998;2023-04-12T12:27:16;66.78;47.42;81.96;;
49568;Laerm;35474;51.032;6.998;2023-04-12T12:29:43;75.11;52.72;97.78;;
49568;Laerm;35474;51.032;6.998;2023-04-12T12:32:16;69.19;51.32;89.02;;
49568;Laerm;35474;51.032;6.998;2023-04-12T12:34:53;69.13;53.81;88.07;;
49568;Laerm;35474;51.032;6.998;2023-04-12T12:37:25;67.14;49.07;82.07;;
49568;Laerm;35474;51.032;6.998;2023-04-12T12:40:05;66.72;51.35;79.11;;
49568;Laerm;35474;51.032;6.998;2023-04-12T12:42:33;66.50;50.49;79.95;;
49568;Laerm;35474;51.032;6.998;2023-04-12T12:44:59;68.08;48.00;86.08;;
49568;Laerm;35474;51.032;6.998;2023-04-12T12:47:26;67.37;55.42;83.73;;
49568;Laerm;35474;51.032;6.998;2023-04-12T12:49:52;67.36;52.94;83.95;;
49568;Laerm;35474;51.032;6.998;2023-04-12T12:52:19;64.92;55.00;74.65;;
49568;Laerm;35474;51.032;6.998;2023-04-12T12:54:46;66.56;57.73;76.69;;
49568;Laerm;35474;51.032;6.998;2023-04-12T12:57:12;66.70;49.97;76.41;;
49568;Laerm;35474;51.032;6.998;2023-04-12T12:59:39;64.19;47.54;74.74;;
49568;Laerm;35474;51.032;6.998;2023-04-12T13:02:06;67.46;56.34;78.99;;
49568;Laerm;35474;51.032;6.998;2023-04-12T13:04:33;67.14;53.26;84.46;;
49568;Laerm;35474;51.032;6.998;2023-04-12T13:07:00;68.93;50.02;89.79;;
49568;Laerm;35474;51.032;6.998;2023-04-12T13:09:26;71.83;51.70;91.77;;
49568;Laerm;35474;51.032;6.998;2023-04-12T13:11:53;71.35;53.08;91.15;;
49568;Laerm;35474;51.032;6.998;2023-04-12T13:14:19;69.02;52.66;86.04;;
49568;Laerm;35474;51.032;6.998;2023-04-12T13:16:46;68.66;54.57;78.75;;
49568;Laerm;35474;51.032;6.998;2023-04-12T13:19:14;67.02;55.34;82.29;;
49568;Laerm;35474;51.032;6.998;2023-04-12T13:21:41;69.05;50.52;89.17;;
49568;Laerm;35474;51.032;6.998;2023-04-12T13:24:08;68.56;53.29;84.98;;
49568;Laerm;35474;51.032;6.998;2023-04-12T13:26:34;65.89;50.19;81.44;;
49568;Laerm;35474;51.032;6.998;2023-04-12T13:29:01;71.45;53.18;95.12;;
49568;Laerm;35474;51.032;6.998;2023-04-12T13:31:28;67.83;55.75;89.32;;
49568;Laerm;35474;51.032;6.998;2023-04-12T13:33:55;70.74;54.83;83.95;;
49568;Laerm;35474;51.032;6.998;2023-04-12T13:36:22;70.81;52.91;92.86;;
49568;Laerm;35474;51.032;6.998;2023-04-12T13:38:48;68.21;49.36;86.07;;
49568;Laerm;35474;51.032;6.998;2023-04-12T13:41:15;68.99;54.93;89.75;;
49568;Laerm;35474;51.032;6.998;2023-04-12T13:43:41;69.78;53.08;88.13;;
49568;Laerm;35474;51.032;6.998;2023-04-12T13:46:08;66.86;50.31;79.99;;
49568;Laerm;35474;51.032;6.998;2023-04-12T13:48:34;65.52;53.08;84.89;;
49568;Laerm;35474;51.032;6.998;2023-04-12T13:51:01;69.18;50.61;87.78;;
49568;Laerm;35474;51.032;6.998;2023-04-12T13:53:29;64.21;48.66;73.89;;
49568;Laerm;35474;51.032;6.998;2023-04-12T13:55:56;69.58;52.84;82.31;;
49568;Laerm;35474;51.032;6.998;2023-04-12T13:58:22;67.42;49.45;78.19;;
49568;Laerm;35474;51.032;6.998;2023-04-12T14:00:51;68.09;48.85;90.35;;
49568;Laerm;35474;51.032;6.998;2023-04-12T14:03:19;69.51;46.06;89.02;;
49568;Laerm;35474;51.032;6.998;2023-04-12T14:05:46;68.22;48.28;87.58;;
49568;Laerm;35474;51.032;6.998;2023-04-12T14:08:12;68.80;56.69;89.34;;
49568;Laerm;35474;51.032;6.998;2023-04-12T14:10:39;71.13;55.97;88.57;;
49568;Laerm;35474;51.032;6.998;2023-04-12T14:13:05;73.10;50.02;91.40;;
49568;Laerm;35474;51.032;6.998;2023-04-12T14:15:32;73.28;50.00;95.16;;
49568;Laerm;35474;51.032;6.998;2023-04-12T14:17:59;69.21;54.04;88.23;;
49568;Laerm;35474;51.032;6.998;2023-04-12T14:20:26;65.94;52.53;87.69;;
49568;Laerm;35474;51.032;6.998;2023-04-12T14:22:52;67.41;53.92;88.47;;
49568;Laerm;35474;51.032;6.998;2023-04-12T14:25:19;73.11;51.70;94.91;;
49568;Laerm;35474;51.032;6.998;2023-04-12T14:27:46;74.90;55.75;96.87;;
49568;Laerm;35474;51.032;6.998;2023-04-12T14:30:13;71.48;50.47;92.21;;
49568;Laerm;35474;51.032;6.998;2023-04-12T14:32:45;76.43;48.85;100.30;;
49568;Laerm;35474;51.032;6.998;2023-04-12T14:35:13;78.48;49.89;99.60;;
49568;Laerm;35474;51.032;6.998;2023-04-12T14:37:40;79.48;51.50;102.58;;
49568;Laerm;35474;51.032;6.998;2023-04-12T14:40:07;81.16;52.37;101.18;;
49568;Laerm;35474;51.032;6.998;2023-04-12T14:42:34;71.94;52.70;87.52;;
49568;Laerm;35474;51.032;6.998;2023-04-12T14:45:01;78.67;58.86;98.99;;
49568;Laerm;35474;51.032;6.998;2023-04-12T14:47:27;79.32;48.60;97.76;;
49568;Laerm;35474;51.032;6.998;2023-04-12T14:49:54;77.14;50.84;98.31;;
49568;Laerm;35474;51.032;6.998;2023-04-12T14:52:20;76.24;49.63;96.29;;
49568;Laerm;35474;51.032;6.998;2023-04-12T14:54:47;70.63;49.19;94.14;;
49568;Laerm;35474;51.032;6.998;2023-04-12T14:57:14;78.92;54.22;99.47;;
49568;Laerm;35474;51.032;6.998;2023-04-12T14:59:40;72.67;54.52;93.93;;
49568;Laerm;35474;51.032;6.998;2023-04-12T15:02:07;69.11;58.45;88.56;;
49568;Laerm;35474;51.032;6.998;2023-04-12T15:04:34;67.80;47.38;87.07;;
49568;Laerm;35474;51.032;6.998;2023-04-12T15:07:01;67.52;57.29;86.19;;
49568;Laerm;35474;51.032;6.998;2023-04-12T15:09:27;69.96;51.14;88.25;;
49568;Laerm;35474;51.032;6.998;2023-04-12T15:11:54;68.54;54.83;84.17;;
49568;Laerm;35474;51.032;6.998;2023-04-12T15:14:26;77.05;59.20;100.35;;
49568;Laerm;35474;51.032;6.998;2023-04-12T15:16:53;77.20;55.67;100.82;;
49568;Laerm;35474;51.032;6.998;2023-04-12T15:19:20;71.79;46.93;94.81;;
49568;Laerm;35474;51.032;6.998;2023-04-12T15:21:50;72.42;52.64;95.52;;
49568;Laerm;35474;51.032;6.998;2023-04-12T15:24:17;67.02;48.53;83.88;;
49568;Laerm;35474;51.032;6.998;2023-04-12T15:26:45;68.62;49.34;85.35;;
49568;Laerm;35474;51.032;6.998;2023-04-12T15:29:14;75.66;51.70;96.57;;
49568;Laerm;35474;51.032;6.998;2023-04-12T15:31:41;75.78;53.88;96.03;;
49568;Laerm;35474;51.032;6.998;2023-04-12T15:34:09;72.32;52.48;91.58;;
49568;Laerm;35474;51.032;6.998;2023-04-12T15:36:36;75.80;50.62;96.87;;
49568;Laerm;35474;51.032;6.998;2023-04-12T15:39:03;74.64;50.89;95.34;;
49568;Laerm;35474;51.032;6.998;2023-04-12T15:41:33;65.56;48.34;79.74;;
49568;Laerm;35474;51.032;6.998;2023-04-12T15:44:03;68.96;49.66;88.15;;
49568;Laerm;35474;51.032;6.998;2023-04-12T15:46:30;66.36;51.42;86.55;;
49568;Laerm;35474;51.032;6.998;2023-04-12T15:48:57;80.79;54.01;101.13;;
49568;Laerm;35474;51.032;6.998;2023-04-12T15:51:24;79.45;54.98;99.05;;
49568;Laerm;35474;51.032;6.998;2023-04-12T15:53:52;84.85;55.77;107.85;;